createdAt,value
2023-04-16T00:00:09.984Z,100853.06
2023-04-16T00:02:36.982Z,100852.69
2023-04-16T00:08:15.912Z,100865.38
2023-04-16T00:10:42.394Z,100857.19
2023-04-16T00:13:08.782Z,100859.34
2023-04-16T00:15:35.487Z,100854.38
2023-04-16T00:18:02.006Z,100854.09
2023-04-16T00:20:28.464Z,100850.31
2023-04-16T00:22:55.004Z,100846.19
2023-04-16T00:25:21.660Z,100852.53
2023-04-16T00:27:48.147Z,100846.19
2023-04-16T00:30:15.000Z,100847.16
2023-04-16T00:32:41.412Z,100839.97
2023-04-16T00:35:08.171Z,100840.94
2023-04-16T00:37:34.668Z,100838.38
2023-04-16T00:40:01.238Z,100827.91
2023-04-16T00:42:27.769Z,100838.63
2023-04-16T00:44:54.296Z,100833.38
2023-04-16T00:47:20.754Z,100838.25
2023-04-16T00:49:47.276Z,100837.72
2023-04-16T00:52:13.694Z,100839.56
2023-04-16T00:54:40.384Z,100850.63
2023-04-16T00:57:06.792Z,100841.84
2023-04-16T00:59:33.286Z,100839.19
2023-04-16T01:01:59.780Z,100842.84
2023-04-16T01:04:26.625Z,100842.59
2023-04-16T01:06:53.515Z,100831.88
2023-04-16T01:09:19.994Z,100839.19
2023-04-16T01:11:46.418Z,100839.81
2023-04-16T01:14:12.858Z,100844.16
2023-04-16T01:16:39.262Z,100845.06
2023-04-16T01:19:05.691Z,100849.41
2023-04-16T01:21:32.506Z,100839.56
2023-04-16T01:24:02.314Z,100836.88
2023-04-16T01:26:28.825Z,100838.47
2023-04-16T01:28:55.318Z,100835.66
2023-04-16T01:31:21.747Z,100839.94
2023-04-16T01:33:48.346Z,100840.81
2023-04-16T01:36:14.704Z,100835.66
2023-04-16T01:38:43.421Z,100835.66
2023-04-16T01:41:09.834Z,100831.16
2023-04-16T01:43:38.405Z,100824.84
2023-04-16T01:46:11.788Z,100824.00
2023-04-16T01:48:38.244Z,100822.38
2023-04-16T01:51:05.036Z,100829.56
2023-04-16T01:53:31.504Z,100822.38
2023-04-16T01:55:57.919Z,100825.22
2023-04-16T01:58:24.330Z,100849.31
2023-04-16T02:00:50.760Z,100830.56
2023-04-16T02:03:18.767Z,100828.34
2023-04-16T02:05:45.356Z,100841.97
2023-04-16T02:08:11.890Z,100840.63
2023-04-16T02:10:38.317Z,100840.34
2023-04-16T02:13:04.974Z,100837.78
2023-04-16T02:15:31.438Z,100837.78
2023-04-16T02:17:58.005Z,100830.59
2023-04-16T02:20:25.170Z,100836.69
2023-04-16T02:22:51.662Z,100832.19
2023-04-16T02:25:18.162Z,100833.91
2023-04-16T02:27:44.550Z,100831.13
2023-04-16T02:30:11.229Z,100839.66
2023-04-16T02:32:37.596Z,100840.03
2023-04-16T02:35:04.163Z,100839.44
2023-04-16T02:37:30.959Z,100837.03
2023-04-16T02:39:57.831Z,100838.38
2023-04-16T02:42:24.220Z,100844.34
2023-04-16T02:44:50.711Z,100843.50
2023-04-16T02:47:17.233Z,100843.59
2023-04-16T02:49:43.741Z,100848.13
2023-04-16T02:52:10.220Z,100843.50
2023-04-16T02:54:36.645Z,100844.34
2023-04-16T02:57:03.459Z,100845.06
2023-04-16T02:59:29.874Z,100845.81
2023-04-16T03:01:56.419Z,100838.88
2023-04-16T03:04:23.345Z,100833.50
2023-04-16T03:06:49.817Z,100839.97
2023-04-16T03:09:16.331Z,100837.41
2023-04-16T03:11:42.757Z,100841.66
2023-04-16T03:14:09.462Z,100845.06
2023-04-16T03:16:36.419Z,100837.03
2023-04-16T03:19:02.807Z,100846.19
2023-04-16T03:21:29.252Z,100840.19
2023-04-16T03:23:56.136Z,100835.19
2023-04-16T03:26:22.694Z,100839.72
2023-04-16T03:28:49.171Z,100837.75
2023-04-16T03:31:15.641Z,100841.91
2023-04-16T03:33:42.820Z,100842.66
2023-04-16T03:36:10.102Z,100847.91
2023-04-16T03:38:36.487Z,100847.16
2023-04-16T03:41:02.980Z,100846.28
2023-04-16T03:43:29.442Z,100841.06
2023-04-16T03:45:55.891Z,100849.31
2023-04-16T03:48:22.289Z,100838.25
2023-04-16T03:50:48.779Z,100849.41
2023-04-16T03:53:15.495Z,100844.53
2023-04-16T03:55:42.150Z,100857.44
2023-04-16T03:58:08.662Z,100863.84
2023-04-16T04:00:35.332Z,100857.91
2023-04-16T04:03:01.954Z,100857.50
2023-04-16T04:05:28.717Z,100862.44
2023-04-16T04:07:55.521Z,100855.88
2023-04-16T04:10:21.868Z,100859.50
2023-04-16T04:12:48.316Z,100855.97
2023-04-16T04:15:14.873Z,100859.50
2023-04-16T04:17:41.380Z,100854.38
2023-04-16T04:20:08.077Z,100858.88
2023-04-16T04:22:34.488Z,100861.44
2023-04-16T04:25:00.911Z,100860.22
2023-04-16T04:27:27.350Z,100866.09
2023-04-16T04:29:53.753Z,100876.56
2023-04-16T04:32:20.266Z,100875.38
2023-04-16T04:34:46.724Z,100877.84
2023-04-16T04:37:13.150Z,100878.56
2023-04-16T04:39:39.535Z,100881.25
2023-04-16T04:42:06.050Z,100873.44
2023-04-16T04:44:32.805Z,100875.09
2023-04-16T04:46:59.452Z,100873.97
2023-04-16T04:49:26.120Z,100881.38
2023-04-16T04:51:52.672Z,100880.41
2023-04-16T04:54:19.118Z,100884.78
2023-04-16T04:56:46.041Z,100877.22
2023-04-16T04:59:12.719Z,100887.41
2023-04-16T05:01:40.224Z,100895.97
2023-04-16T05:04:06.840Z,100886.75
2023-04-16T05:06:33.324Z,100895.28
2023-04-16T05:09:00.074Z,100894.06
2023-04-16T05:11:26.519Z,100893.63
2023-04-16T05:13:52.949Z,100894.34
2023-04-16T05:16:20.467Z,100886.81
2023-04-16T05:18:46.956Z,100903.41
2023-04-16T05:21:13.367Z,100908.16
2023-04-16T05:23:39.776Z,100915.38
2023-04-16T05:26:06.184Z,100910.31
2023-04-16T05:28:32.791Z,100917.88
2023-04-16T05:30:59.807Z,100913.88
2023-04-16T05:33:26.337Z,100916.94
2023-04-16T05:35:52.827Z,100922.69
2023-04-16T05:38:19.814Z,100925.63
2023-04-16T05:40:46.320Z,100920.44
2023-04-16T05:43:12.696Z,100924.47
2023-04-16T05:45:41.223Z,100933.63
2023-04-16T05:48:09.175Z,100938.25
2023-04-16T05:50:36.096Z,100936.09
2023-04-16T05:53:05.325Z,100944.59
2023-04-16T05:55:31.759Z,100953.03
2023-04-16T05:57:58.141Z,100943.38
2023-04-16T06:00:24.609Z,100952.41
2023-04-16T06:02:51.424Z,100951.44
2023-04-16T06:05:19.290Z,100951.41
2023-04-16T06:07:45.735Z,100959.47
2023-04-16T06:10:12.171Z,100957.84
2023-04-16T06:12:38.684Z,100964.56
2023-04-16T06:15:05.621Z,100956.63
2023-04-16T06:17:32.082Z,100959.03
2023-04-16T06:19:58.816Z,100964.19
2023-04-16T06:22:25.546Z,100963.91
2023-04-16T06:24:52.882Z,100971.13
2023-04-16T06:27:19.325Z,100972.84
2023-04-16T06:29:45.751Z,100969.91
2023-04-16T06:32:12.237Z,100969.66
2023-04-16T06:34:39.248Z,100964.47
2023-04-16T06:37:06.420Z,100969.22
2023-04-16T06:39:34.212Z,100968.63
2023-04-16T06:42:03.729Z,100967.84
2023-04-16T06:44:30.207Z,100966.84
2023-04-16T06:46:56.646Z,100968.50
2023-04-16T06:49:23.182Z,100968.53
2023-04-16T06:51:49.726Z,100963.25
2023-04-16T06:54:16.843Z,100958.78
2023-04-16T06:56:43.324Z,100969.00
2023-04-16T06:59:09.946Z,100964.06
2023-04-16T07:01:36.615Z,100957.19
2023-04-16T07:04:03.697Z,100958.47
2023-04-16T07:06:30.258Z,100959.78
2023-04-16T07:08:56.706Z,100965.22
2023-04-16T07:11:23.183Z,100974.59
2023-04-16T07:13:51.285Z,100964.28
2023-04-16T07:16:17.905Z,100962.78
2023-04-16T07:18:44.738Z,100967.34
2023-04-16T07:21:11.511Z,100969.22
2023-04-16T07:23:37.893Z,100959.19
2023-04-16T07:26:04.396Z,100963.03
2023-04-16T07:28:30.875Z,100966.91
2023-04-16T07:30:57.304Z,100966.03
2023-04-16T07:33:24.404Z,100972.19
2023-04-16T07:35:51.428Z,100974.44
2023-04-16T07:38:17.819Z,100971.19
2023-04-16T07:40:44.228Z,100979.13
2023-04-16T07:43:10.704Z,100977.19
2023-04-16T07:45:37.166Z,100976.03
2023-04-16T07:48:03.768Z,100972.19
2023-04-16T07:50:30.276Z,100976.69
2023-04-16T07:52:56.726Z,100979.91
2023-04-16T07:55:23.237Z,100985.16
2023-04-16T07:57:49.671Z,100991.22
2023-04-16T08:00:16.246Z,100985.78
2023-04-16T08:02:43.322Z,100982.03
2023-04-16T08:05:10.174Z,100990.81
2023-04-16T08:07:36.664Z,100993.66
2023-04-16T08:10:03.280Z,100996.44
2023-04-16T08:12:29.841Z,101005.66
2023-04-16T08:14:56.335Z,101002.66
2023-04-16T08:17:22.922Z,101009.59
2023-04-16T08:19:49.419Z,101008.59
2023-04-16T08:22:16.161Z,101016.56
2023-04-16T08:24:42.701Z,101017.41
2023-04-16T08:27:18.326Z,101027.38
2023-04-16T08:29:45.557Z,101027.38
2023-04-16T08:32:11.926Z,101028.06
2023-04-16T08:34:38.413Z,101033.31
2023-04-16T08:37:04.931Z,101034.16
2023-04-16T08:39:31.396Z,101026.75
2023-04-16T08:41:57.806Z,101028.31
2023-04-16T08:44:28.368Z,101022.44
2023-04-16T08:46:59.100Z,101020.16
2023-04-16T08:49:26.143Z,101025.22
2023-04-16T08:51:55.988Z,101030.34
2023-04-16T08:54:32.775Z,101025.66
2023-04-16T08:56:59.812Z,101028.03
2023-04-16T08:59:26.782Z,101032.13
2023-04-16T09:01:56.246Z,101024.44
2023-04-16T09:04:22.918Z,101035.75
2023-04-16T09:06:49.667Z,101036.16
2023-04-16T09:09:16.093Z,101039.41
2023-04-16T09:11:42.737Z,101041.81
2023-04-16T09:14:09.670Z,101040.34
2023-04-16T09:16:36.395Z,101049.69
2023-04-16T09:19:02.861Z,101044.13
2023-04-16T09:21:29.306Z,101038.56
2023-04-16T09:23:55.714Z,101046.25
2023-04-16T09:26:22.693Z,101040.84
2023-04-16T09:28:50.924Z,101053.34
2023-04-16T09:31:17.964Z,101046.09
2023-04-16T09:33:45.117Z,101049.66
2023-04-16T09:36:11.554Z,101053.88
2023-04-16T09:38:51.455Z,101051.88
2023-04-16T09:41:18.607Z,101049.88
2023-04-16T09:43:56.074Z,101059.53
2023-04-16T09:46:22.626Z,101056.66
2023-04-16T09:48:49.125Z,101052.94
2023-04-16T09:51:15.596Z,101058.06
2023-04-16T09:53:42.004Z,101058.75
2023-04-16T09:56:08.877Z,101060.44
2023-04-16T09:58:38.547Z,101060.16
2023-04-16T10:01:09.336Z,101064.53
2023-04-16T10:03:36.915Z,101058.28
2023-04-16T10:06:06.486Z,101060.00
2023-04-16T10:08:32.990Z,101062.38
2023-04-16T10:10:59.422Z,101062.22
2023-04-16T10:13:28.044Z,101069.31
2023-04-16T10:15:57.892Z,101062.75
2023-04-16T10:18:24.421Z,101072.44
2023-04-16T10:20:50.968Z,101070.41
2023-04-16T10:23:17.413Z,101066.53
2023-04-16T10:25:45.077Z,101061.13
2023-04-16T10:28:11.527Z,101067.53
2023-04-16T10:30:38.207Z,101062.13
2023-04-16T10:33:04.783Z,101058.56
2023-04-16T10:35:31.388Z,101063.00
2023-04-16T10:37:57.979Z,101060.09
2023-04-16T10:40:25.732Z,101061.81
2023-04-16T10:42:58.490Z,101057.38
2023-04-16T10:45:32.803Z,101060.97
2023-04-16T10:47:59.212Z,101054.53
2023-04-16T10:50:25.752Z,101056.94
2023-04-16T10:53:12.144Z,101050.50
2023-04-16T10:55:39.064Z,101047.31
2023-04-16T10:58:25.506Z,101048.56
2023-04-16T11:00:52.015Z,101054.50
2023-04-16T11:03:18.543Z,101051.63
2023-04-16T11:05:46.990Z,101043.34
2023-04-16T11:08:16.394Z,101043.19
2023-04-16T11:10:43.909Z,101042.00
2023-04-16T11:13:10.830Z,101045.41
2023-04-16T11:15:37.336Z,101047.97
2023-04-16T11:18:04.215Z,101046.94
2023-04-16T11:20:30.832Z,101046.09
2023-04-16T11:22:57.962Z,101052.38
2023-04-16T11:25:25.228Z,101047.97
2023-04-16T11:27:52.106Z,101042.41
2023-04-16T11:30:18.947Z,101040.19
2023-04-16T11:32:45.681Z,101050.72
2023-04-16T11:35:16.293Z,101044.28
2023-04-16T11:37:42.713Z,101043.28
2023-04-16T11:40:12.612Z,101038.88
2023-04-16T11:42:42.846Z,101033.44
2023-04-16T11:45:09.911Z,101038.88
2023-04-16T11:47:46.624Z,101035.16
2023-04-16T11:50:20.422Z,101031.28
2023-04-16T11:52:48.278Z,101031.81
2023-04-16T11:55:15.590Z,101032.31
2023-04-16T11:57:42.271Z,101032.00
2023-04-16T12:00:13.972Z,101033.56
2023-04-16T12:02:41.410Z,101031.41
2023-04-16T12:05:26.681Z,101018.00
2023-04-16T12:07:53.100Z,101024.59
2023-04-16T12:10:19.620Z,101031.88
2023-04-16T12:12:46.165Z,101019.34
2023-04-16T12:15:12.668Z,101013.69
2023-04-16T12:17:39.235Z,101016.91
2023-04-16T12:20:09.640Z,101011.09
2023-04-16T12:22:37.442Z,101023.66
2023-04-16T12:25:06.026Z,101023.66
2023-04-16T12:28:01.714Z,101024.47
2023-04-16T12:30:28.188Z,101027.19
2023-04-16T12:33:13.847Z,101016.03
2023-04-16T12:35:41.921Z,101017.03
2023-04-16T12:38:08.353Z,101018.22
2023-04-16T12:40:36.886Z,101016.50
2023-04-16T12:43:03.656Z,101017.69
2023-04-16T12:45:30.042Z,101015.13
2023-04-16T12:47:56.674Z,101017.00
2023-04-16T12:50:24.369Z,101015.13
2023-04-16T12:52:50.951Z,101009.72
2023-04-16T12:55:17.557Z,101008.19
2023-04-16T12:57:44.426Z,101011.22
2023-04-16T13:00:11.236Z,101007.84
2023-04-16T13:02:37.958Z,101015.09
2023-04-16T13:05:04.826Z,101014.38
2023-04-16T13:07:32.306Z,101004.59
2023-04-16T13:09:58.754Z,101006.25
2023-04-16T13:12:25.361Z,101002.56
2023-04-16T13:14:51.793Z,100989.88
2023-04-16T13:17:18.248Z,100992.56
2023-04-16T13:19:45.256Z,100989.03
2023-04-16T13:22:11.665Z,100989.03
2023-04-16T13:24:38.985Z,100983.91
2023-04-16T13:27:05.854Z,100987.66
2023-04-16T13:29:32.314Z,100981.84
2023-04-16T13:31:58.677Z,100977.78
2023-04-16T13:34:25.151Z,100982.50
2023-04-16T13:36:51.564Z,100971.28
2023-04-16T13:39:18.192Z,100985.16
2023-04-16T13:41:44.584Z,100985.47
2023-04-16T13:44:11.007Z,100976.66
2023-04-16T13:46:37.543Z,100980.38
2023-04-16T13:49:03.962Z,100967.84
2023-04-16T13:51:30.460Z,100974.78
2023-04-16T13:53:56.859Z,100973.81
2023-04-16T13:56:23.333Z,100972.97
2023-04-16T13:58:50.814Z,100970.06
2023-04-16T14:01:17.386Z,100959.25
2023-04-16T14:03:44.030Z,100956.72
2023-04-16T14:06:10.510Z,100954.31
2023-04-16T14:08:38.282Z,100954.47
2023-04-16T14:11:06.480Z,100960.06
2023-04-16T14:13:32.877Z,100944.13
2023-04-16T14:15:59.347Z,100940.56
2023-04-16T14:18:25.880Z,100942.28
2023-04-16T14:20:52.309Z,100942.28
2023-04-16T14:23:18.822Z,100943.81
2023-04-16T14:25:45.300Z,100943.63
2023-04-16T14:28:13.068Z,100935.69
2023-04-16T14:30:41.487Z,100941.25
2023-04-16T14:33:07.939Z,100941.09
2023-04-16T14:35:35.029Z,100932.81
2023-04-16T14:38:01.566Z,100933.50
2023-04-16T14:40:27.973Z,100936.19
2023-04-16T14:42:54.449Z,100930.78
2023-04-16T14:45:21.250Z,100929.66
2023-04-16T14:47:48.227Z,100932.34
2023-04-16T14:50:15.593Z,100931.66
2023-04-16T14:52:42.184Z,100930.78
2023-04-16T14:55:08.600Z,100929.94
2023-04-16T14:57:35.382Z,100934.38
2023-04-16T15:00:02.115Z,100920.84
2023-04-16T15:02:28.652Z,100923.53
2023-04-16T15:04:55.426Z,100923.34
2023-04-16T15:07:22.131Z,100917.94
2023-04-16T15:09:49.152Z,100919.97
2023-04-16T15:12:17.923Z,100929.25
2023-04-16T15:14:45.693Z,100938.56
2023-04-16T15:17:12.202Z,100933.84
2023-04-16T15:19:38.681Z,100930.28
2023-04-16T15:22:05.094Z,100923.16
2023-04-16T15:24:31.551Z,100926.34
2023-04-16T15:26:58.140Z,100923.09
2023-04-16T15:29:24.617Z,100921.56
2023-04-16T15:31:51.159Z,100920.03
2023-04-16T15:34:17.625Z,100917.47
2023-04-16T15:36:44.035Z,100914.94
2023-04-16T15:39:10.793Z,100916.78
2023-04-16T15:41:50.246Z,100908.00
2023-04-16T15:44:26.005Z,100916.59
2023-04-16T15:46:53.610Z,100916.91
2023-04-16T15:49:20.041Z,100918.94
2023-04-16T15:51:46.567Z,100911.81
2023-04-16T15:54:13.016Z,100910.63
2023-04-16T15:56:39.689Z,100905.91
2023-04-16T15:59:06.577Z,100904.78
2023-04-16T16:01:33.084Z,100903.59
2023-04-16T16:03:59.707Z,100900.56
2023-04-16T16:06:27.171Z,100898.53
2023-04-16T16:08:54.509Z,100897.38
2023-04-16T16:11:21.256Z,100907.03
2023-04-16T16:13:47.769Z,100902.47
2023-04-16T16:16:14.917Z,100902.47
2023-04-16T16:18:42.633Z,100901.44
2023-04-16T16:21:09.019Z,100902.31
2023-04-16T16:23:35.589Z,100898.75
2023-04-16T16:26:03.205Z,100900.47
2023-04-16T16:28:29.609Z,100905.88
2023-04-16T16:30:58.710Z,100908.56
2023-04-16T16:33:25.384Z,100896.91
2023-04-16T16:35:51.834Z,100912.13
2023-04-16T16:38:18.325Z,100909.41
2023-04-16T16:40:45.130Z,100906.56
2023-04-16T16:43:11.683Z,100907.56
2023-04-16T16:45:38.610Z,100909.56
2023-04-16T16:48:05.404Z,100906.88
2023-04-16T16:50:32.640Z,100912.13
2023-04-16T16:52:59.716Z,100907.56
2023-04-16T16:55:26.492Z,100912.97
2023-04-16T16:57:53.389Z,100923.28
2023-04-16T17:00:21.603Z,100913.94
2023-04-16T17:02:51.148Z,100908.81
2023-04-16T17:05:17.904Z,100910.00
2023-04-16T17:07:45.950Z,100912.88
2023-04-16T17:10:15.874Z,100912.34
2023-04-16T17:12:42.356Z,100908.38
2023-04-16T17:15:09.218Z,100911.22
2023-04-16T17:17:38.349Z,100912.41
2023-04-16T17:20:09.266Z,100909.69
2023-04-16T17:22:36.060Z,100917.97
2023-04-16T17:25:02.599Z,100917.13
2023-04-16T17:27:30.072Z,100921.84
2023-04-16T17:30:00.183Z,100921.16
2023-04-16T17:32:27.036Z,100928.56
2023-04-16T17:34:56.580Z,100923.50
2023-04-16T17:37:23.367Z,100929.06
2023-04-16T17:39:49.867Z,100925.66
2023-04-16T17:42:16.350Z,100923.28
2023-04-16T17:44:42.875Z,100922.59
2023-04-16T17:47:09.277Z,100922.72
2023-04-16T17:49:36.108Z,100926.41
2023-04-16T17:52:02.534Z,100922.88
2023-04-16T17:54:28.963Z,100929.13
2023-04-16T17:56:55.449Z,100931.00
2023-04-16T17:59:21.931Z,100928.44
2023-04-16T18:01:49.600Z,100926.06
2023-04-16T18:04:16.472Z,100929.94
2023-04-16T18:06:43.321Z,100929.09
2023-04-16T18:09:09.771Z,100926.38
2023-04-16T18:11:36.258Z,100930.91
2023-04-16T18:14:02.753Z,100926.69
2023-04-16T18:16:29.241Z,100937.63
2023-04-16T18:18:55.833Z,100944.06
2023-04-16T18:21:22.457Z,100939.66
2023-04-16T18:23:48.864Z,100945.94
2023-04-16T18:26:22.422Z,100947.94
2023-04-16T18:28:49.428Z,100947.06
2023-04-16T18:31:16.021Z,100943.50
2023-04-16T18:33:54.172Z,100952.47
2023-04-16T18:36:22.557Z,100956.88
2023-04-16T18:39:01.042Z,100958.28
2023-04-16T18:41:29.906Z,100973.88
2023-04-16T18:43:57.721Z,100972.41
2023-04-16T18:46:24.390Z,100981.59
2023-04-16T18:48:50.994Z,100981.91
2023-04-16T18:51:19.782Z,100978.44
2023-04-16T18:53:48.543Z,100973.25
2023-04-16T18:56:15.624Z,100978.06
2023-04-16T18:58:44.788Z,100981.28
2023-04-16T19:01:13.669Z,100985.75
2023-04-16T19:03:40.141Z,100995.28
2023-04-16T19:06:06.602Z,101028.31
2023-04-16T19:08:33.097Z,101032.88
2023-04-16T19:10:59.857Z,100996.59
2023-04-16T19:13:26.437Z,100980.25
2023-04-16T19:15:58.392Z,100963.34
2023-04-16T19:18:24.970Z,100964.47
2023-04-16T19:20:51.685Z,100975.28
2023-04-16T19:23:18.066Z,100988.63
2023-04-16T19:25:44.488Z,100998.44
2023-04-16T19:28:18.434Z,101000.13
2023-04-16T19:30:46.717Z,101013.78
2023-04-16T19:33:13.410Z,101034.56
2023-04-16T19:35:42.113Z,101025.47
2023-04-16T19:38:11.183Z,101022.78
2023-04-16T19:40:37.872Z,101034.88
2023-04-16T19:43:04.321Z,101032.47
2023-04-16T19:45:30.777Z,101027.75
2023-04-16T19:47:57.267Z,101028.56
2023-04-16T19:50:23.880Z,101033.06
2023-04-16T19:52:54.036Z,101021.69
2023-04-16T19:55:20.537Z,100984.31
2023-04-16T19:57:48.772Z,100988.09
2023-04-16T20:00:15.433Z,101036.84
2023-04-16T20:02:42.102Z,101030.66
2023-04-16T20:05:08.875Z,101031.06
2023-04-16T20:07:35.406Z,101035.38
2023-04-16T20:10:02.966Z,101033.47
2023-04-16T20:12:29.479Z,101039.22
2023-04-16T20:14:57.104Z,101055.03
2023-04-16T20:17:26.170Z,101066.84
2023-04-16T20:19:52.692Z,101065.16
2023-04-16T20:22:20.208Z,101077.53
2023-04-16T20:24:48.095Z,101082.78
2023-04-16T20:27:15.501Z,101077.97
2023-04-16T20:29:42.170Z,101084.34
2023-04-16T20:32:08.699Z,101088.75
2023-04-16T20:34:36.525Z,101090.44
2023-04-16T20:37:03.012Z,101086.59
2023-04-16T20:39:33.894Z,101087.47
2023-04-16T20:42:04.774Z,101082.78
2023-04-16T20:44:40.432Z,101079.78
2023-04-16T20:47:07.691Z,101071.44
2023-04-16T20:49:38.252Z,101090.03
2023-04-16T20:52:05.087Z,101083.22
2023-04-16T20:54:31.503Z,101082.47
2023-04-16T20:56:59.028Z,101083.88
2023-04-16T20:59:25.782Z,101088.00
2023-04-16T21:01:52.437Z,101088.13
2023-04-16T21:04:19.441Z,101086.56
2023-04-16T21:06:46.171Z,101095.94
2023-04-16T21:09:13.263Z,101094.81
2023-04-16T21:11:41.418Z,101102.59
2023-04-16T21:14:07.873Z,101100.59
2023-04-16T21:16:34.370Z,101113.28
2023-04-16T21:19:00.971Z,101116.28
2023-04-16T21:21:27.558Z,101116.56
2023-04-16T21:23:53.954Z,101121.56
2023-04-16T21:26:20.748Z,101131.34
2023-04-16T21:28:47.230Z,101122.25
2023-04-16T21:31:13.692Z,101108.19
2023-04-16T21:33:40.219Z,101107.34
2023-04-16T21:36:06.775Z,101110.06
2023-04-16T21:38:33.160Z,101112.75
2023-04-16T21:41:00.994Z,101115.72
2023-04-16T21:43:29.770Z,101113.31
2023-04-16T21:45:57.434Z,101112.72
2023-04-16T21:48:23.967Z,101114.38
2023-04-16T21:50:58.280Z,101117.19
2023-04-16T21:53:25.418Z,101128.94
2023-04-16T21:55:52.266Z,101124.38
2023-04-16T21:58:18.715Z,101113.44
2023-04-16T22:00:45.517Z,101154.41
2023-04-16T22:03:12.498Z,101146.44
2023-04-16T22:05:41.231Z,101134.94
2023-04-16T22:08:23.643Z,101138.78
2023-04-16T22:10:51.243Z,101140.75
2023-04-16T22:13:17.944Z,101134.66
2023-04-16T22:15:44.410Z,101155.22
2023-04-16T22:18:11.532Z,101135.38
2023-04-16T22:20:39.532Z,101159.47
2023-04-16T22:23:06.383Z,101143.03
2023-04-16T22:25:32.951Z,101150.16
2023-04-16T22:27:59.906Z,101138.53
2023-04-16T22:30:26.338Z,101153.56
2023-04-16T22:32:52.879Z,101137.81
2023-04-16T22:35:19.333Z,101148.19
2023-04-16T22:37:46.002Z,101137.41
2023-04-16T22:40:12.410Z,101148.53
2023-04-16T22:42:38.856Z,101140.72
2023-04-16T22:45:07.466Z,101134.06
2023-04-16T22:47:34.145Z,101132.94
2023-04-16T22:50:03.492Z,101142.72
2023-04-16T22:52:29.990Z,101140.47
2023-04-16T22:54:56.479Z,101139.22
2023-04-16T22:57:27.847Z,101146.16
2023-04-16T22:59:54.336Z,101138.78
2023-04-16T23:02:21.720Z,101146.63
2023-04-16T23:04:48.191Z,101148.22
2023-04-16T23:07:14.938Z,101139.28
2023-04-16T23:09:41.379Z,101142.00
2023-04-16T23:12:08.017Z,101147.09
2023-04-16T23:14:35.173Z,101144.41
2023-04-16T23:17:01.934Z,101146.13
2023-04-16T23:19:28.787Z,101139.88
2023-04-16T23:21:55.207Z,101140.84
2023-04-16T23:24:23.814Z,101143.69
2023-04-16T23:26:52.387Z,101137.56
2023-04-16T23:29:18.940Z,101146.69
2023-04-16T23:31:45.546Z,101150.34
2023-04-16T23:34:12.061Z,101147.66
2023-04-16T23:36:39.296Z,101141.28
2023-04-16T23:39:05.748Z,101144.41
2023-04-16T23:41:32.194Z,101141.44
2023-04-16T23:43:58.730Z,101136.59
2023-04-16T23:46:25.329Z,101142.44
2023-04-16T23:48:52.687Z,101147.41
2023-04-16T23:51:19.180Z,101137.31
2023-04-16T23:53:45.702Z,101142.72
2023-04-16T23:56:12.199Z,101145.84
2023-04-16T23:58:38.702Z,101140.56
